Flight Track Log - Related Links

Times and Time Zones

All times are in EDT time to prevent confusion due to time zone crossing. See the N30KC flight status page for this flight to view local times or setup timezone preferences in your user account.

Time Position Orientation Groundspeed Altitude Reporting Facility
EDT Latitude Longitude Course Direction KTS MPH feet Rate Location/Type
Sun 11:52:00 AM 41.2333 -70.4518 270° West  Level FlightAware Approximate
Sun 11:53:00 AM 41.2334 -70.5189 270° West  Level FlightAware Approximate
Sun 11:54:00 AM 41.2334 -70.5861 270° West  Level FlightAware Approximate
Sun 11:55:00 AM 41.2333 -70.6533 270° West  Level FlightAware Approximate
Sun 11:56:00 AM 41.2283 -70.7200 263° West  Level FlightAware Approximate
Sun 11:57:00 AM 41.2220 -70.7867 263° West  Level FlightAware Approximate
Sun 11:57:42 AM 41.2019 -70.7628 265° West 197 227 8,100  Level Boston Center
Sun 11:58:00 AM 41.2157 -70.8533 263° West  Level FlightAware Approximate
Sun 11:58:36 AM 41.2011 -70.8317 269° West 195 224 8,100  Level Boston Center
Sun 11:59:00 AM 41.2093 -70.9199 263° West  Level FlightAware Approximate
Sun 11:59:37 AM 41.1978 -70.9008 266° West 192 221 8,100  Level Boston Center
Sun 12:00:00 PM 41.2029 -70.9865 263° West  Level FlightAware Approximate
Sun 12:00:38 PM 41.1967 -70.9753 269° West 195 224 8,100  Level Boston Center
Sun 12:01:00 PM 41.2000 -71.0534 270° West  Level FlightAware Approximate
Sun 12:01:39 PM 41.1914 -71.0444 264° West 193 222 8,100  Level Boston Center
Sun 12:02:00 PM 41.1965 -71.1204 265° West  Level FlightAware Approximate
Sun 12:02:40 PM 41.1903 -71.1217 269° West 193 222 8,100  Level Boston Center
Sun 12:03:41 PM 41.1867 -71.1906 266° West 194 223 8,100  Level Boston Center
Sun 12:04:42 PM 41.1833 -71.2653 267° West 194 223 8,100  Level Boston Center
Sun 12:05:37 PM 41.1778 -71.3286 263° West 193 222 8,100  Level Boston Center
Sun 12:06:38 PM 41.1764 -71.4006 269° West 194 223 8,100  Level Boston Center
Sun 12:07:39 PM 41.1750 -71.4694 268° West 191 220 8,100  Level Boston Center
Sun 12:08:40 PM 41.1567 -71.5386 251° West 196 226 8,100  Level Boston Center
Sun 12:09:41 PM 41.1344 -71.6078 247° West 190 219 8,100  Level Boston Center
Sun 12:10:42 PM 41.1161 -71.6742 250° West 190 219 8,100  Level Boston Center
Sun 12:11:43 PM 41.0978 -71.7378 249° West 191 220 8,100  Level Boston Center
Sun 12:12:43 PM 41.0794 -71.8042 250° West 194 223 8,100  Level Boston Center
Sun 12:13:44 PM 41.0569 -71.8675 245° Southwest 189 217 8,100  Level Boston Center
Sun 12:14:45 PM 41.0364 -71.9339 248° West 189 217 8,100  Level Boston Center
Sun 12:16:48 PM 41.0000 -72.0667 250° West 188 216 8,100  Level New York TRACON
Sun 12:17:48 PM 40.9833 -72.1333 252° West 187 215 8,100  Level New York TRACON
Sun 12:18:06 PM 40.9725 -72.1458 221° Southwest 190 219 8,100  Level Boston Center
Sun 12:19:06 PM 40.9517 -72.2092 246° West 190 219 8,100  Level Boston Center
Sun 12:20:06 PM 40.9331 -72.2753 250° West 190 219 8,100  Level Boston Center
Sun 12:21:06 PM 40.9061 -72.3303 237° Southwest 190 219 8,100  Level Boston Center
Sun 12:22:06 PM 40.8686 -72.3797 225° Southwest 190 219 8,100  Level Boston Center
Sun 12:23:06 PM 40.8292 -72.4292 223° Southwest 195 224 8,100  Level Boston Center
Sun 12:24:06 PM 40.7894 -72.4786 223° Southwest 200 230 8,100  Level Boston Center
Sun 12:25:06 PM 40.7497 -72.5250 222° Southwest 200 230 8,100  Level Boston Center
Sun 12:26:07 PM 40.7103 -72.5714 222° Southwest 200 230 8,100  Level Boston Center
Sun 12:27:06 PM 40.6725 -72.6208 225° Southwest 200 230 8,100  Level Boston Center
Sun 12:28:06 PM 40.6331 -72.6697 223° Southwest 200 230 8,100  Level Boston Center
Sun 12:29:06 PM 40.5953 -72.7133 221° Southwest 195 224 8,100  Level Boston Center
Sun 12:30:06 PM 40.5597 -72.7569 223° Southwest 195 224 8,100  Level Boston Center
Sun 12:31:06 PM 40.5200 -72.8058 223° Southwest 195 224 8,100  Level Boston Center
Sun 12:33:27 PM 40.4319 -72.9169 224° Southwest 193 222 8,100  Level New York Center
Sun 12:34:25 PM 40.3958 -72.9594 222° Southwest 199 229 8,100  Level New York Center
Sun 12:35:26 PM 40.3531 -73.0125 223° Southwest 199 229 8,100  Level New York Center
Sun 12:36:26 PM 40.3167 -73.0550 222° Southwest 199 229 8,100  Level New York Center
Sun 12:37:27 PM 40.2783 -73.1053 225° Southwest 199 229 8,100  Level New York Center
Sun 12:38:28 PM 40.2378 -73.1500 220° Southwest 199 229 8,100  Level New York Center
Sun 12:39:26 PM 40.1928 -73.2028 222° Southwest 199 229 8,100 -51 Level New York Center
Sun 12:40:26 PM 40.1586 -73.2453 224° Southwest 199 229 8,000 -400 Descending New York Center
Sun 12:41:26 PM 40.1242 -73.3064 234° Southwest 204 235 7,300 -744 Descending New York Center
Sun 12:42:27 PM 40.1000 -73.3569 238° Southwest 187 215 6,500 -893 Descending New York Center
Sun 12:43:27 PM 40.0717 -73.4156 238° Southwest 181 208 5,500 -908 Descending New York Center
Sun 12:44:26 PM 40.0453 -73.4714 238° Southwest 181 208 4,700 -814 Descending New York Center

Login

Don't have an account? Register now (free) for customized features, flight alerts, and more!